sensor_id;sensor_type;location;lat;lon;timestamp;P1;durP1;ratioP1;P2;durP2;ratioP2
19595;SDS011;9945;46.010;8.946;2023-04-25T00:00:17;1.30;;;1.20;;
19595;SDS011;9945;46.010;8.946;2023-04-25T00:02:45;1.95;;;0.90;;
19595;SDS011;9945;46.010;8.946;2023-04-25T00:05:12;0.82;;;0.82;;
19595;SDS011;9945;46.010;8.946;2023-04-25T00:07:40;1.88;;;1.00;;
19595;SDS011;9945;46.010;8.946;2023-04-25T00:10:08;0.70;;;0.70;;
19595;SDS011;9945;46.010;8.946;2023-04-25T00:12:36;0.95;;;0.93;;
19595;SDS011;9945;46.010;8.946;2023-04-25T00:15:04;1.38;;;0.80;;
19595;SDS011;9945;46.010;8.946;2023-04-25T00:17:33;0.98;;;0.88;;
19595;SDS011;9945;46.010;8.946;2023-04-25T00:20:01;1.38;;;0.90;;
19595;SDS011;9945;46.010;8.946;2023-04-25T00:22:30;1.23;;;0.80;;
19595;SDS011;9945;46.010;8.946;2023-04-25T00:24:57;0.57;;;0.57;;
19595;SDS011;9945;46.010;8.946;2023-04-25T00:27:25;2.53;;;0.98;;
19595;SDS011;9945;46.010;8.946;2023-04-25T00:29:52;1.08;;;1.00;;
19595;SDS011;9945;46.010;8.946;2023-04-25T00:32:19;0.88;;;0.88;;
19595;SDS011;9945;46.010;8.946;2023-04-25T00:34:47;3.13;;;1.00;;
19595;SDS011;9945;46.010;8.946;2023-04-25T00:37:14;0.90;;;0.90;;
19595;SDS011;9945;46.010;8.946;2023-04-25T00:39:41;2.13;;;1.17;;
19595;SDS011;9945;46.010;8.946;2023-04-25T00:42:08;1.00;;;1.00;;
19595;SDS011;9945;46.010;8.946;2023-04-25T00:44:35;2.13;;;1.00;;
19595;SDS011;9945;46.010;8.946;2023-04-25T00:47:02;0.88;;;0.88;;
19595;SDS011;9945;46.010;8.946;2023-04-25T00:49:29;0.85;;;0.85;;
19595;SDS011;9945;46.010;8.946;2023-04-25T00:51:57;1.30;;;0.88;;
19595;SDS011;9945;46.010;8.946;2023-04-25T00:54:24;1.47;;;1.10;;
19595;SDS011;9945;46.010;8.946;2023-04-25T00:56:52;1.15;;;1.00;;
19595;SDS011;9945;46.010;8.946;2023-04-25T00:59:19;0.73;;;0.70;;
19595;SDS011;9945;46.010;8.946;2023-04-25T01:01:46;1.02;;;1.00;;
19595;SDS011;9945;46.010;8.946;2023-04-25T01:04:13;1.63;;;0.80;;
19595;SDS011;9945;46.010;8.946;2023-04-25T01:06:40;1.17;;;0.95;;
19595;SDS011;9945;46.010;8.946;2023-04-25T01:09:08;1.17;;;0.82;;
19595;SDS011;9945;46.010;8.946;2023-04-25T01:11:35;0.85;;;0.85;;
19595;SDS011;9945;46.010;8.946;2023-04-25T01:14:02;2.00;;;0.98;;
19595;SDS011;9945;46.010;8.946;2023-04-25T01:16:29;1.35;;;0.90;;
19595;SDS011;9945;46.010;8.946;2023-04-25T01:18:57;0.77;;;0.77;;
19595;SDS011;9945;46.010;8.946;2023-04-25T01:21:25;4.68;;;1.25;;
19595;SDS011;9945;46.010;8.946;2023-04-25T01:23:54;1.02;;;1.02;;
19595;SDS011;9945;46.010;8.946;2023-04-25T01:26:22;1.02;;;0.93;;
19595;SDS011;9945;46.010;8.946;2023-04-25T01:28:50;1.42;;;0.88;;
19595;SDS011;9945;46.010;8.946;2023-04-25T01:31:17;1.65;;;0.95;;
19595;SDS011;9945;46.010;8.946;2023-04-25T01:33:45;1.17;;;0.82;;
19595;SDS011;9945;46.010;8.946;2023-04-25T01:36:12;6.88;;;0.90;;
19595;SDS011;9945;46.010;8.946;2023-04-25T01:38:40;5.38;;;0.90;;
19595;SDS011;9945;46.010;8.946;2023-04-25T01:41:09;1.20;;;1.08;;
19595;SDS011;9945;46.010;8.946;2023-04-25T01:43:36;0.95;;;0.90;;
19595;SDS011;9945;46.010;8.946;2023-04-25T01:46:03;0.73;;;0.73;;
19595;SDS011;9945;46.010;8.946;2023-04-25T01:48:30;1.42;;;1.20;;
19595;SDS011;9945;46.010;8.946;2023-04-25T01:50:57;1.15;;;1.10;;
19595;SDS011;9945;46.010;8.946;2023-04-25T01:53:24;1.30;;;1.23;;
19595;SDS011;9945;46.010;8.946;2023-04-25T01:55:52;1.02;;;0.80;;
19595;SDS011;9945;46.010;8.946;2023-04-25T01:58:19;1.05;;;1.05;;
19595;SDS011;9945;46.010;8.946;2023-04-25T02:00:46;3.90;;;1.13;;
19595;SDS011;9945;46.010;8.946;2023-04-25T02:03:13;0.80;;;0.80;;
19595;SDS011;9945;46.010;8.946;2023-04-25T02:05:40;0.93;;;0.85;;
19595;SDS011;9945;46.010;8.946;2023-04-25T02:08:07;0.88;;;0.88;;
19595;SDS011;9945;46.010;8.946;2023-04-25T02:10:35;2.83;;;1.30;;
19595;SDS011;9945;46.010;8.946;2023-04-25T02:13:04;1.67;;;0.90;;
19595;SDS011;9945;46.010;8.946;2023-04-25T02:15:31;0.82;;;0.80;;
19595;SDS011;9945;46.010;8.946;2023-04-25T02:17:58;1.08;;;1.00;;
19595;SDS011;9945;46.010;8.946;2023-04-25T02:20:26;0.70;;;0.70;;
19595;SDS011;9945;46.010;8.946;2023-04-25T02:22:53;2.85;;;1.00;;
19595;SDS011;9945;46.010;8.946;2023-04-25T02:25:21;0.90;;;0.90;;
19595;SDS011;9945;46.010;8.946;2023-04-25T02:27:48;1.77;;;1.02;;
19595;SDS011;9945;46.010;8.946;2023-04-25T02:30:17;3.03;;;0.90;;
19595;SDS011;9945;46.010;8.946;2023-04-25T02:32:44;2.03;;;0.80;;
19595;SDS011;9945;46.010;8.946;2023-04-25T02:35:12;0.93;;;0.80;;
19595;SDS011;9945;46.010;8.946;2023-04-25T02:37:39;1.08;;;1.08;;
19595;SDS011;9945;46.010;8.946;2023-04-25T02:40:06;2.83;;;1.02;;
19595;SDS011;9945;46.010;8.946;2023-04-25T02:42:34;1.95;;;1.08;;
19595;SDS011;9945;46.010;8.946;2023-04-25T02:45:01;1.20;;;1.10;;
19595;SDS011;9945;46.010;8.946;2023-04-25T02:47:30;0.90;;;0.82;;
19595;SDS011;9945;46.010;8.946;2023-04-25T02:49:57;3.55;;;1.10;;
19595;SDS011;9945;46.010;8.946;2023-04-25T02:52:24;2.83;;;1.17;;
19595;SDS011;9945;46.010;8.946;2023-04-25T02:54:51;1.40;;;1.25;;
19595;SDS011;9945;46.010;8.946;2023-04-25T02:57:18;0.80;;;0.80;;
19595;SDS011;9945;46.010;8.946;2023-04-25T02:59:44;0.82;;;0.77;;
19595;SDS011;9945;46.010;8.946;2023-04-25T03:02:11;1.25;;;1.15;;
19595;SDS011;9945;46.010;8.946;2023-04-25T03:04:40;1.90;;;0.80;;
19595;SDS011;9945;46.010;8.946;2023-04-25T03:07:06;1.20;;;1.10;;
19595;SDS011;9945;46.010;8.946;2023-04-25T03:09:34;1.17;;;1.17;;
19595;SDS011;9945;46.010;8.946;2023-04-25T03:12:01;0.80;;;0.80;;
19595;SDS011;9945;46.010;8.946;2023-04-25T03:14:28;3.28;;;1.10;;
19595;SDS011;9945;46.010;8.946;2023-04-25T03:16:54;0.90;;;0.90;;
19595;SDS011;9945;46.010;8.946;2023-04-25T03:19:21;0.80;;;0.80;;
19595;SDS011;9945;46.010;8.946;2023-04-25T03:21:49;0.97;;;0.97;;
19595;SDS011;9945;46.010;8.946;2023-04-25T03:24:16;0.90;;;0.90;;
19595;SDS011;9945;46.010;8.946;2023-04-25T03:26:43;4.40;;;1.20;;
19595;SDS011;9945;46.010;8.946;2023-04-25T03:29:10;1.20;;;1.02;;
19595;SDS011;9945;46.010;8.946;2023-04-25T03:31:37;3.20;;;1.00;;
19595;SDS011;9945;46.010;8.946;2023-04-25T03:34:04;2.97;;;1.10;;
19595;SDS011;9945;46.010;8.946;2023-04-25T03:36:31;0.88;;;0.88;;
19595;SDS011;9945;46.010;8.946;2023-04-25T03:39:00;1.20;;;1.10;;
19595;SDS011;9945;46.010;8.946;2023-04-25T03:41:26;1.70;;;1.00;;
19595;SDS011;9945;46.010;8.946;2023-04-25T03:43:54;3.38;;;1.30;;
19595;SDS011;9945;46.010;8.946;2023-04-25T03:46:21;1.13;;;0.93;;
19595;SDS011;9945;46.010;8.946;2023-04-25T03:48:48;2.03;;;0.90;;
19595;SDS011;9945;46.010;8.946;2023-04-25T03:51:15;1.37;;;0.90;;
19595;SDS011;9945;46.010;8.946;2023-04-25T03:53:42;2.10;;;1.00;;
19595;SDS011;9945;46.010;8.946;2023-04-25T03:56:10;0.93;;;0.90;;
19595;SDS011;9945;46.010;8.946;2023-04-25T03:58:37;0.93;;;0.93;;
19595;SDS011;9945;46.010;8.946;2023-04-25T04:01:04;2.00;;;1.00;;
19595;SDS011;9945;46.010;8.946;2023-04-25T04:03:32;2.33;;;1.23;;
19595;SDS011;9945;46.010;8.946;2023-04-25T04:06:01;1.30;;;1.20;;
19595;SDS011;9945;46.010;8.946;2023-04-25T04:08:29;1.37;;;1.13;;
19595;SDS011;9945;46.010;8.946;2023-04-25T04:10:56;1.47;;;1.10;;
19595;SDS011;9945;46.010;8.946;2023-04-25T04:13:25;1.33;;;1.23;;
19595;SDS011;9945;46.010;8.946;2023-04-25T04:15:51;1.60;;;1.30;;
19595;SDS011;9945;46.010;8.946;2023-04-25T04:18:18;2.07;;;1.10;;
19595;SDS011;9945;46.010;8.946;2023-04-25T04:20:45;1.03;;;1.00;;
19595;SDS011;9945;46.010;8.946;2023-04-25T04:23:12;1.33;;;1.23;;
19595;SDS011;9945;46.010;8.946;2023-04-25T04:25:39;1.13;;;1.13;;
19595;SDS011;9945;46.010;8.946;2023-04-25T04:28:06;2.60;;;1.20;;
19595;SDS011;9945;46.010;8.946;2023-04-25T04:30:35;2.00;;;1.33;;
19595;SDS011;9945;46.010;8.946;2023-04-25T04:33:02;1.20;;;1.20;;
19595;SDS011;9945;46.010;8.946;2023-04-25T04:35:29;3.60;;;1.00;;
19595;SDS011;9945;46.010;8.946;2023-04-25T04:37:56;2.53;;;1.10;;
19595;SDS011;9945;46.010;8.946;2023-04-25T04:40:23;2.83;;;1.30;;
19595;SDS011;9945;46.010;8.946;2023-04-25T04:42:50;1.53;;;1.10;;
19595;SDS011;9945;46.010;8.946;2023-04-25T04:45:18;1.30;;;1.20;;
19595;SDS011;9945;46.010;8.946;2023-04-25T04:47:47;1.63;;;1.30;;
19595;SDS011;9945;46.010;8.946;2023-04-25T04:50:14;1.40;;;1.30;;
19595;SDS011;9945;46.010;8.946;2023-04-25T04:52:41;1.13;;;1.03;;
19595;SDS011;9945;46.010;8.946;2023-04-25T04:55:08;1.47;;;1.37;;
19595;SDS011;9945;46.010;8.946;2023-04-25T04:57:35;3.90;;;1.77;;
19595;SDS011;9945;46.010;8.946;2023-04-25T05:00:05;2.70;;;1.23;;
19595;SDS011;9945;46.010;8.946;2023-04-25T05:02:36;1.27;;;1.17;;
19595;SDS011;9945;46.010;8.946;2023-04-25T05:05:05;3.00;;;1.13;;
19595;SDS011;9945;46.010;8.946;2023-04-25T05:07:32;7.53;;;1.20;;
19595;SDS011;9945;46.010;8.946;2023-04-25T05:09:59;2.47;;;1.20;;
19595;SDS011;9945;46.010;8.946;2023-04-25T05:12:26;1.37;;;1.27;;
19595;SDS011;9945;46.010;8.946;2023-04-25T05:14:53;1.27;;;1.17;;
19595;SDS011;9945;46.010;8.946;2023-04-25T05:17:20;1.43;;;1.30;;
19595;SDS011;9945;46.010;8.946;2023-04-25T05:19:47;1.67;;;1.57;;
19595;SDS011;9945;46.010;8.946;2023-04-25T05:22:15;3.17;;;1.37;;
19595;SDS011;9945;46.010;8.946;2023-04-25T05:24:42;3.20;;;1.27;;
19595;SDS011;9945;46.010;8.946;2023-04-25T05:27:09;4.43;;;1.80;;
19595;SDS011;9945;46.010;8.946;2023-04-25T05:29:36;2.93;;;1.40;;
19595;SDS011;9945;46.010;8.946;2023-04-25T05:32:03;2.30;;;1.50;;
19595;SDS011;9945;46.010;8.946;2023-04-25T05:34:30;2.80;;;1.17;;
19595;SDS011;9945;46.010;8.946;2023-04-25T05:36:57;3.33;;;1.23;;
19595;SDS011;9945;46.010;8.946;2023-04-25T05:39:25;4.93;;;2.33;;
19595;SDS011;9945;46.010;8.946;2023-04-25T05:41:52;2.53;;;1.77;;
19595;SDS011;9945;46.010;8.946;2023-04-25T05:44:19;2.17;;;1.30;;
19595;SDS011;9945;46.010;8.946;2023-04-25T05:46:46;3.73;;;1.70;;
19595;SDS011;9945;46.010;8.946;2023-04-25T05:49:13;1.93;;;1.43;;
19595;SDS011;9945;46.010;8.946;2023-04-25T05:51:39;1.33;;;1.23;;
19595;SDS011;9945;46.010;8.946;2023-04-25T05:54:06;3.20;;;1.50;;
19595;SDS011;9945;46.010;8.946;2023-04-25T05:56:35;4.97;;;1.70;;
19595;SDS011;9945;46.010;8.946;2023-04-25T05:59:01;1.30;;;1.20;;
19595;SDS011;9945;46.010;8.946;2023-04-25T06:01:28;1.50;;;1.20;;
19595;SDS011;9945;46.010;8.946;2023-04-25T06:03:55;2.00;;;1.42;;
19595;SDS011;9945;46.010;8.946;2023-04-25T06:06:22;6.43;;;1.70;;
19595;SDS011;9945;46.010;8.946;2023-04-25T06:08:49;4.40;;;1.30;;
19595;SDS011;9945;46.010;8.946;2023-04-25T06:11:16;1.13;;;0.90;;
19595;SDS011;9945;46.010;8.946;2023-04-25T06:13:45;2.08;;;1.13;;
19595;SDS011;9945;46.010;8.946;2023-04-25T06:16:12;0.80;;;0.77;;
19595;SDS011;9945;46.010;8.946;2023-04-25T06:18:39;2.83;;;1.50;;
19595;SDS011;9945;46.010;8.946;2023-04-25T06:21:06;2.55;;;1.60;;
19595;SDS011;9945;46.010;8.946;2023-04-25T06:23:33;2.65;;;1.70;;
19595;SDS011;9945;46.010;8.946;2023-04-25T06:26:00;6.32;;;1.52;;
19595;SDS011;9945;46.010;8.946;2023-04-25T06:28:27;3.20;;;1.48;;
19595;SDS011;9945;46.010;8.946;2023-04-25T06:30:55;1.38;;;1.13;;
19595;SDS011;9945;46.010;8.946;2023-04-25T06:33:22;1.40;;;1.27;;
19595;SDS011;9945;46.010;8.946;2023-04-25T06:35:49;3.22;;;1.55;;
19595;SDS011;9945;46.010;8.946;2023-04-25T06:38:16;4.88;;;1.40;;
19595;SDS011;9945;46.010;8.946;2023-04-25T06:40:43;2.65;;;1.40;;
19595;SDS011;9945;46.010;8.946;2023-04-25T06:43:09;3.13;;;1.40;;
19595;SDS011;9945;46.010;8.946;2023-04-25T06:45:36;3.58;;;1.20;;
19595;SDS011;9945;46.010;8.946;2023-04-25T06:48:05;1.42;;;1.33;;
19595;SDS011;9945;46.010;8.946;2023-04-25T06:50:32;2.83;;;1.45;;
19595;SDS011;9945;46.010;8.946;2023-04-25T06:52:59;5.32;;;1.88;;
19595;SDS011;9945;46.010;8.946;2023-04-25T06:55:27;2.03;;;1.73;;
19595;SDS011;9945;46.010;8.946;2023-04-25T06:57:54;3.75;;;1.80;;
19595;SDS011;9945;46.010;8.946;2023-04-25T07:00:21;5.22;;;1.73;;
19595;SDS011;9945;46.010;8.946;2023-04-25T07:02:48;1.75;;;1.65;;
19595;SDS011;9945;46.010;8.946;2023-04-25T07:05:16;1.65;;;1.52;;
19595;SDS011;9945;46.010;8.946;2023-04-25T07:07:43;1.95;;;1.38;;
19595;SDS011;9945;46.010;8.946;2023-04-25T07:10:10;5.03;;;1.50;;
19595;SDS011;9945;46.010;8.946;2023-04-25T07:12:37;1.40;;;1.30;;
19595;SDS011;9945;46.010;8.946;2023-04-25T07:15:04;3.92;;;1.42;;
19595;SDS011;9945;46.010;8.946;2023-04-25T07:17:35;1.30;;;1.20;;
19595;SDS011;9945;46.010;8.946;2023-04-25T07:20:02;2.60;;;1.40;;
19595;SDS011;9945;46.010;8.946;2023-04-25T07:22:32;2.03;;;1.40;;
19595;SDS011;9945;46.010;8.946;2023-04-25T07:24:59;2.47;;;1.60;;
19595;SDS011;9945;46.010;8.946;2023-04-25T07:27:26;1.50;;;1.30;;
19595;SDS011;9945;46.010;8.946;2023-04-25T07:29:53;1.52;;;1.38;;
19595;SDS011;9945;46.010;8.946;2023-04-25T07:32:20;1.75;;;1.58;;
19595;SDS011;9945;46.010;8.946;2023-04-25T07:34:47;3.00;;;1.30;;
19595;SDS011;9945;46.010;8.946;2023-04-25T07:37:14;1.83;;;1.23;;
19595;SDS011;9945;46.010;8.946;2023-04-25T07:39:42;1.73;;;1.55;;
19595;SDS011;9945;46.010;8.946;2023-04-25T07:42:11;2.05;;;1.20;;
19595;SDS011;9945;46.010;8.946;2023-04-25T07:44:37;1.55;;;1.15;;
19595;SDS011;9945;46.010;8.946;2023-04-25T07:47:05;2.08;;;1.30;;
19595;SDS011;9945;46.010;8.946;2023-04-25T07:49:33;2.33;;;1.30;;
19595;SDS011;9945;46.010;8.946;2023-04-25T07:52:00;4.13;;;1.38;;
19595;SDS011;9945;46.010;8.946;2023-04-25T07:54:27;1.42;;;1.00;;
19595;SDS011;9945;46.010;8.946;2023-04-25T07:56:56;2.50;;;1.20;;
19595;SDS011;9945;46.010;8.946;2023-04-25T07:59:23;1.92;;;1.13;;
19595;SDS011;9945;46.010;8.946;2023-04-25T08:01:50;1.20;;;0.98;;
19595;SDS011;9945;46.010;8.946;2023-04-25T08:04:17;1.48;;;1.33;;
19595;SDS011;9945;46.010;8.946;2023-04-25T08:06:44;2.28;;;1.27;;
19595;SDS011;9945;46.010;8.946;2023-04-25T08:09:11;1.45;;;1.20;;
19595;SDS011;9945;46.010;8.946;2023-04-25T08:11:38;2.25;;;0.85;;
19595;SDS011;9945;46.010;8.946;2023-04-25T08:14:07;2.55;;;1.30;;
19595;SDS011;9945;46.010;8.946;2023-04-25T08:16:34;2.40;;;1.35;;
19595;SDS011;9945;46.010;8.946;2023-04-25T08:19:02;2.80;;;1.15;;
19595;SDS011;9945;46.010;8.946;2023-04-25T08:21:30;2.25;;;1.20;;
19595;SDS011;9945;46.010;8.946;2023-04-25T08:23:57;1.77;;;1.23;;
19595;SDS011;9945;46.010;8.946;2023-04-25T08:26:24;1.30;;;1.08;;
19595;SDS011;9945;46.010;8.946;2023-04-25T08:28:51;1.52;;;1.13;;
19595;SDS011;9945;46.010;8.946;2023-04-25T08:31:20;5.20;;;1.20;;
19595;SDS011;9945;46.010;8.946;2023-04-25T08:33:46;1.67;;;1.10;;
19595;SDS011;9945;46.010;8.946;2023-04-25T08:36:14;3.28;;;1.55;;
19595;SDS011;9945;46.010;8.946;2023-04-25T08:38:42;0.95;;;0.95;;
19595;SDS011;9945;46.010;8.946;2023-04-25T08:41:09;1.10;;;1.00;;
19595;SDS011;9945;46.010;8.946;2023-04-25T08:43:38;2.47;;;1.73;;
19595;SDS011;9945;46.010;8.946;2023-04-25T08:46:09;2.38;;;1.25;;
19595;SDS011;9945;46.010;8.946;2023-04-25T08:48:40;1.23;;;1.13;;
19595;SDS011;9945;46.010;8.946;2023-04-25T08:51:10;2.63;;;1.10;;
19595;SDS011;9945;46.010;8.946;2023-04-25T08:53:45;2.20;;;1.10;;
19595;SDS011;9945;46.010;8.946;2023-04-25T08:56:17;1.40;;;1.30;;
19595;SDS011;9945;46.010;8.946;2023-04-25T08:58:47;1.35;;;1.10;;
19595;SDS011;9945;46.010;8.946;2023-04-25T09:01:14;1.23;;;1.10;;
19595;SDS011;9945;46.010;8.946;2023-04-25T09:03:43;0.85;;;0.85;;
19595;SDS011;9945;46.010;8.946;2023-04-25T09:06:12;1.45;;;1.35;;
19595;SDS011;9945;46.010;8.946;2023-04-25T09:08:41;1.95;;;1.33;;
19595;SDS011;9945;46.010;8.946;2023-04-25T09:11:08;1.95;;;1.10;;
19595;SDS011;9945;46.010;8.946;2023-04-25T09:13:35;1.27;;;1.15;;
19595;SDS011;9945;46.010;8.946;2023-04-25T09:16:02;3.28;;;1.50;;
19595;SDS011;9945;46.010;8.946;2023-04-25T09:18:29;0.95;;;0.95;;
19595;SDS011;9945;46.010;8.946;2023-04-25T09:21:04;2.55;;;1.20;;
19595;SDS011;9945;46.010;8.946;2023-04-25T09:23:38;3.30;;;1.45;;
19595;SDS011;9945;46.010;8.946;2023-04-25T09:26:06;2.03;;;1.20;;
19595;SDS011;9945;46.010;8.946;2023-04-25T09:28:34;1.45;;;1.10;;
19595;SDS011;9945;46.010;8.946;2023-04-25T09:31:03;2.58;;;1.25;;
19595;SDS011;9945;46.010;8.946;2023-04-25T09:33:30;1.58;;;1.08;;
19595;SDS011;9945;46.010;8.946;2023-04-25T09:36:04;2.83;;;1.20;;
19595;SDS011;9945;46.010;8.946;2023-04-25T09:38:40;1.42;;;1.30;;
19595;SDS011;9945;46.010;8.946;2023-04-25T09:41:08;1.45;;;1.27;;
19595;SDS011;9945;46.010;8.946;2023-04-25T09:43:35;1.48;;;1.20;;
19595;SDS011;9945;46.010;8.946;2023-04-25T09:46:04;2.67;;;1.65;;
19595;SDS011;9945;46.010;8.946;2023-04-25T09:48:34;1.15;;;1.15;;
19595;SDS011;9945;46.010;8.946;2023-04-25T09:51:06;2.70;;;1.20;;
19595;SDS011;9945;46.010;8.946;2023-04-25T09:53:34;2.38;;;1.10;;
19595;SDS011;9945;46.010;8.946;2023-04-25T09:56:03;1.25;;;1.02;;
19595;SDS011;9945;46.010;8.946;2023-04-25T09:58:32;2.45;;;1.20;;
19595;SDS011;9945;46.010;8.946;2023-04-25T10:01:00;1.20;;;1.10;;
19595;SDS011;9945;46.010;8.946;2023-04-25T10:03:29;1.77;;;1.30;;
19595;SDS011;9945;46.010;8.946;2023-04-25T10:05:57;4.68;;;1.30;;
19595;SDS011;9945;46.010;8.946;2023-04-25T10:08:29;1.48;;;1.08;;
19595;SDS011;9945;46.010;8.946;2023-04-25T10:11:00;4.07;;;1.42;;
19595;SDS011;9945;46.010;8.946;2023-04-25T10:13:28;4.65;;;1.13;;
19595;SDS011;9945;46.010;8.946;2023-04-25T10:15:56;2.75;;;1.27;;
19595;SDS011;9945;46.010;8.946;2023-04-25T10:18:24;0.98;;;0.98;;
19595;SDS011;9945;46.010;8.946;2023-04-25T10:20:53;1.73;;;1.30;;
19595;SDS011;9945;46.010;8.946;2023-04-25T10:23:21;2.53;;;1.80;;
19595;SDS011;9945;46.010;8.946;2023-04-25T10:25:51;1.38;;;1.20;;
19595;SDS011;9945;46.010;8.946;2023-04-25T10:28:20;3.28;;;1.48;;
19595;SDS011;9945;46.010;8.946;2023-04-25T10:33:34;1.05;;;1.00;;
19595;SDS011;9945;46.010;8.946;2023-04-25T10:36:09;2.60;;;1.23;;
19595;SDS011;9945;46.010;8.946;2023-04-25T10:38:37;1.95;;;1.20;;
19595;SDS011;9945;46.010;8.946;2023-04-25T10:41:07;1.65;;;0.93;;
19595;SDS011;9945;46.010;8.946;2023-04-25T10:43:36;1.30;;;1.20;;
19595;SDS011;9945;46.010;8.946;2023-04-25T10:46:13;1.33;;;0.80;;
19595;SDS011;9945;46.010;8.946;2023-04-25T10:48:47;1.10;;;0.80;;
19595;SDS011;9945;46.010;8.946;2023-04-25T10:51:16;1.20;;;1.10;;
19595;SDS011;9945;46.010;8.946;2023-04-25T10:53:45;1.42;;;1.33;;
19595;SDS011;9945;46.010;8.946;2023-04-25T10:56:17;1.50;;;1.23;;
19595;SDS011;9945;46.010;8.946;2023-04-25T10:58:46;2.63;;;0.80;;
19595;SDS011;9945;46.010;8.946;2023-04-25T11:01:14;1.40;;;1.15;;
19595;SDS011;9945;46.010;8.946;2023-04-25T11:03:42;0.80;;;0.80;;
19595;SDS011;9945;46.010;8.946;2023-04-25T11:06:15;0.90;;;0.90;;
19595;SDS011;9945;46.010;8.946;2023-04-25T11:08:50;2.95;;;0.75;;
19595;SDS011;9945;46.010;8.946;2023-04-25T11:11:19;2.63;;;0.80;;
19595;SDS011;9945;46.010;8.946;2023-04-25T11:13:47;0.88;;;0.50;;
19595;SDS011;9945;46.010;8.946;2023-04-25T11:16:14;0.82;;;0.63;;
19595;SDS011;9945;46.010;8.946;2023-04-25T11:18:41;1.58;;;0.50;;
19595;SDS011;9945;46.010;8.946;2023-04-25T11:21:09;2.55;;;0.50;;
19595;SDS011;9945;46.010;8.946;2023-04-25T11:23:36;0.57;;;0.50;;
19595;SDS011;9945;46.010;8.946;2023-04-25T11:26:03;0.85;;;0.50;;
19595;SDS011;9945;46.010;8.946;2023-04-25T11:28:31;1.27;;;0.50;;
19595;SDS011;9945;46.010;8.946;2023-04-25T11:30:58;0.63;;;0.50;;
19595;SDS011;9945;46.010;8.946;2023-04-25T11:33:26;0.60;;;0.60;;
19595;SDS011;9945;46.010;8.946;2023-04-25T11:35:53;0.88;;;0.70;;
19595;SDS011;9945;46.010;8.946;2023-04-25T11:38:21;1.35;;;0.75;;
19595;SDS011;9945;46.010;8.946;2023-04-25T11:40:51;0.98;;;0.85;;
19595;SDS011;9945;46.010;8.946;2023-04-25T11:43:19;1.02;;;0.77;;
19595;SDS011;9945;46.010;8.946;2023-04-25T11:46:58;0.60;;;0.60;;
19595;SDS011;9945;46.010;8.946;2023-04-25T11:49:25;0.50;;;0.50;;
19595;SDS011;9945;46.010;8.946;2023-04-25T11:51:56;0.63;;;0.52;;
19595;SDS011;9945;46.010;8.946;2023-04-25T11:54:23;0.60;;;0.60;;
19595;SDS011;9945;46.010;8.946;2023-04-25T11:56:51;0.57;;;0.57;;
19595;SDS011;9945;46.010;8.946;2023-04-25T11:59:18;2.75;;;0.70;;
19595;SDS011;9945;46.010;8.946;2023-04-25T12:01:51;1.40;;;0.80;;
19595;SDS011;9945;46.010;8.946;2023-04-25T12:04:21;0.40;;;0.40;;
19595;SDS011;9945;46.010;8.946;2023-04-25T12:06:48;0.40;;;0.40;;
19595;SDS011;9945;46.010;8.946;2023-04-25T12:09:17;0.65;;;0.55;;
19595;SDS011;9945;46.010;8.946;2023-04-25T12:11:46;0.50;;;0.50;;
19595;SDS011;9945;46.010;8.946;2023-04-25T12:14:20;1.02;;;1.02;;
19595;SDS011;9945;46.010;8.946;2023-04-25T12:16:52;0.30;;;0.30;;
19595;SDS011;9945;46.010;8.946;2023-04-25T12:19:22;1.45;;;0.57;;
19595;SDS011;9945;46.010;8.946;2023-04-25T12:21:49;0.32;;;0.32;;
19595;SDS011;9945;46.010;8.946;2023-04-25T12:24:17;2.22;;;0.52;;
19595;SDS011;9945;46.010;8.946;2023-04-25T12:26:49;0.73;;;0.40;;
19595;SDS011;9945;46.010;8.946;2023-04-25T12:29:20;0.32;;;0.30;;
19595;SDS011;9945;46.010;8.946;2023-04-25T12:31:48;0.30;;;0.30;;
19595;SDS011;9945;46.010;8.946;2023-04-25T12:34:16;0.50;;;0.50;;
19595;SDS011;9945;46.010;8.946;2023-04-25T12:36:45;0.38;;;0.38;;
19595;SDS011;9945;46.010;8.946;2023-04-25T12:39:15;0.38;;;0.38;;
19595;SDS011;9945;46.010;8.946;2023-04-25T12:41:42;0.60;;;0.60;;
19595;SDS011;9945;46.010;8.946;2023-04-25T12:44:09;1.60;;;0.50;;
19595;SDS011;9945;46.010;8.946;2023-04-25T12:46:37;0.77;;;0.50;;
19595;SDS011;9945;46.010;8.946;2023-04-25T12:49:04;0.50;;;0.50;;
19595;SDS011;9945;46.010;8.946;2023-04-25T12:51:32;0.40;;;0.40;;
19595;SDS011;9945;46.010;8.946;2023-04-25T12:54:01;1.02;;;0.40;;
19595;SDS011;9945;46.010;8.946;2023-04-25T12:56:29;0.43;;;0.43;;
19595;SDS011;9945;46.010;8.946;2023-04-25T12:58:56;0.50;;;0.50;;
19595;SDS011;9945;46.010;8.946;2023-04-25T13:01:23;1.73;;;0.40;;
19595;SDS011;9945;46.010;8.946;2023-04-25T13:03:51;0.50;;;0.40;;
19595;SDS011;9945;46.010;8.946;2023-04-25T13:06:18;0.95;;;0.30;;
19595;SDS011;9945;46.010;8.946;2023-04-25T13:08:46;0.38;;;0.38;;
19595;SDS011;9945;46.010;8.946;2023-04-25T13:11:15;0.38;;;0.38;;
19595;SDS011;9945;46.010;8.946;2023-04-25T13:13:42;0.85;;;0.45;;
19595;SDS011;9945;46.010;8.946;2023-04-25T13:16:10;0.38;;;0.38;;
19595;SDS011;9945;46.010;8.946;2023-04-25T13:18:39;5.10;;;0.70;;
19595;SDS011;9945;46.010;8.946;2023-04-25T13:21:06;0.40;;;0.40;;
19595;SDS011;9945;46.010;8.946;2023-04-25T13:23:33;0.77;;;0.50;;
19595;SDS011;9945;46.010;8.946;2023-04-25T13:26:00;0.35;;;0.35;;
19595;SDS011;9945;46.010;8.946;2023-04-25T13:28:28;0.35;;;0.35;;
19595;SDS011;9945;46.010;8.946;2023-04-25T13:30:55;1.45;;;0.50;;
19595;SDS011;9945;46.010;8.946;2023-04-25T13:33:22;0.60;;;0.60;;
19595;SDS011;9945;46.010;8.946;2023-04-25T13:35:49;0.50;;;0.50;;
19595;SDS011;9945;46.010;8.946;2023-04-25T13:38:19;1.15;;;0.57;;
19595;SDS011;9945;46.010;8.946;2023-04-25T13:40:47;0.40;;;0.40;;
19595;SDS011;9945;46.010;8.946;2023-04-25T13:43:18;0.52;;;0.50;;
19595;SDS011;9945;46.010;8.946;2023-04-25T13:45:47;2.88;;;0.63;;
19595;SDS011;9945;46.010;8.946;2023-04-25T13:48:14;0.73;;;0.55;;
19595;SDS011;9945;46.010;8.946;2023-04-25T13:50:41;0.40;;;0.38;;
19595;SDS011;9945;46.010;8.946;2023-04-25T13:53:07;1.13;;;0.45;;
19595;SDS011;9945;46.010;8.946;2023-04-25T13:55:35;1.08;;;0.32;;
19595;SDS011;9945;46.010;8.946;2023-04-25T13:58:02;0.40;;;0.40;;
19595;SDS011;9945;46.010;8.946;2023-04-25T14:00:33;1.40;;;0.68;;
19595;SDS011;9945;46.010;8.946;2023-04-25T14:03:04;1.83;;;0.60;;
19595;SDS011;9945;46.010;8.946;2023-04-25T14:05:32;0.50;;;0.50;;
19595;SDS011;9945;46.010;8.946;2023-04-25T14:08:03;0.40;;;0.40;;
19595;SDS011;9945;46.010;8.946;2023-04-25T14:10:32;0.73;;;0.70;;
19595;SDS011;9945;46.010;8.946;2023-04-25T14:12:59;0.55;;;0.50;;
19595;SDS011;9945;46.010;8.946;2023-04-25T14:15:28;0.60;;;0.60;;
19595;SDS011;9945;46.010;8.946;2023-04-25T14:17:56;0.52;;;0.52;;
19595;SDS011;9945;46.010;8.946;2023-04-25T14:20:24;0.60;;;0.60;;
19595;SDS011;9945;46.010;8.946;2023-04-25T14:22:51;0.52;;;0.52;;
19595;SDS011;9945;46.010;8.946;2023-04-25T14:25:23;0.73;;;0.73;;
19595;SDS011;9945;46.010;8.946;2023-04-25T14:27:50;0.82;;;0.50;;
19595;SDS011;9945;46.010;8.946;2023-04-25T14:30:17;3.60;;;0.57;;
19595;SDS011;9945;46.010;8.946;2023-04-25T14:32:45;1.35;;;0.50;;
19595;SDS011;9945;46.010;8.946;2023-04-25T14:35:12;1.30;;;0.85;;
19595;SDS011;9945;46.010;8.946;2023-04-25T14:37:41;0.93;;;0.80;;
19595;SDS011;9945;46.010;8.946;2023-04-25T14:40:08;0.60;;;0.60;;
19595;SDS011;9945;46.010;8.946;2023-04-25T14:42:37;0.77;;;0.75;;
19595;SDS011;9945;46.010;8.946;2023-04-25T14:45:04;2.10;;;0.68;;
19595;SDS011;9945;46.010;8.946;2023-04-25T14:47:32;0.88;;;0.70;;
19595;SDS011;9945;46.010;8.946;2023-04-25T14:49:59;0.63;;;0.63;;
19595;SDS011;9945;46.010;8.946;2023-04-25T14:52:27;0.98;;;0.70;;
19595;SDS011;9945;46.010;8.946;2023-04-25T14:54:55;0.52;;;0.45;;
19595;SDS011;9945;46.010;8.946;2023-04-25T14:57:22;1.50;;;0.55;;
19595;SDS011;9945;46.010;8.946;2023-04-25T14:59:49;1.50;;;0.82;;
19595;SDS011;9945;46.010;8.946;2023-04-25T15:02:16;1.15;;;0.50;;
19595;SDS011;9945;46.010;8.946;2023-04-25T15:04:42;0.75;;;0.75;;
19595;SDS011;9945;46.010;8.946;2023-04-25T15:07:09;4.78;;;0.70;;